Glendale/Luke AFB, Arizona
Current Conditions -  °F | °C
As of 5:58 AM on Monday 20 Oct 2014 (Local Time) from KLUF Reporting Station
Clear Clear  
Wind Chill: 62°   Ceiling: Unl
Heat Index: 62°   Visibility: 10mi
Dew Point: 57°   Wind: 7mph
Humidity: 84%   Direction: 360°N
Pressure: 29.89"   Gusts: NA
Location:  33.53°N, 112.38°W
Report Text: KLUF 201258Z AUTO 36006KT 10SM CLR 17/14 A2989 RMK AO2 SLP112 T01660138 $
Loading
Personal Weather Stations






























Interactive Weather Map New forecast layout! Learn more

10-Day Weather Forecast

Advertisements
Track Severe Weather on mobile